Terminal Aerodrome Forecast
Issued by NWS

Home | Current Version | Previous Version | Text Only | Print | Product List | Glossary On
Versions: 1 2 3 4 5 6 7 8 9 10 11 12 13 14 15 16 17 18 19 20 21 22 23 24
000
FTUS46 KSEW 231402 AAA
TAFSEA
TAF AMD
KSEA 231402Z 2314/2418 08005KT P6SM SCT100 BKN200
      TEMPO 2314/2316 BKN100 BKN200
     FM231800 01005KT P6SM SCT100 BKN200
     FM240100 03003KT P6SM SCT200
     FM240600 VRB03KT P6SM BKN030 BKN200=

USA.gov is the U.S. government's official web portal to all federal, state and local government web resources and services.